Osgood, Idaho
Current Conditions -  °F | °C
As of 5:53 AM on Sunday 21 Dec 2014 (Local Time) from KIDA Reporting Station
Overcast Overcast  
Wind Chill: 28°   Ceiling: 800
Heat Index: 39°   Visibility: 10mi
Dew Point: 36°   Wind: 28mph
Humidity: 89%   Direction: 220°SW
Pressure: 29.75"   Gusts: 35mph
Location:  43.498°N, 111.73°W
Report Text: KIDA 211253Z AUTO 22024G30KT 10SM OVC008 04/02 A2975 RMK AO2 PK WND 21033/1241 SLP080 T00390022
Loading
Personal Weather Stations






























Interactive Weather Map New forecast layout! Learn more

10-Day Weather Forecast

Advertisements
Track Severe Weather on mobile